Terminal Aerodrome Forecast
Issued by NWS

Home | Current Version | Previous Version | Text Only | Print | Product List | Glossary On
Versions: 1 2 3 4 5 6 7 8 9 10 11 12 13 14 15 16 17
399
FTUS43 KEAX 201124
TAFMKC
TAF
KMKC 201124Z 2012/2112 18010KT P6SM SCT250
     FM201500 18014G23KT P6SM FEW250
     FM210900 18012G20KT P6SM SCT030 BKN100=

USA.gov is the U.S. government's official web portal to all federal, state and local government web resources and services.